Time;durP1;ratioP1;P1;durP2;ratioP2;P2;SDS_P1;SDS_P2;PMS_P1;PMS_P2;Temp;Humidity;BMP_temperature;BMP_pressure;BME280_temperature;BME280_humidity;BME280_pressure;Samples;Min_cycle;Max_cycle;Signal;HPM_P1;HPM_P2
2021/04/13 00:01:15;;;;;;;6.10;2.03;;;;;;;;;;5084375;28;20232;-69
2021/04/13 00:03:52;;;;;;;4.67;2.23;;;;;;;;;;5085834;28;20565;-69
2021/04/13 00:06:20;;;;;;;3.47;1.50;;;;;;;;;;5084026;28;20670;-69
2021/04/13 00:08:47;;;;;;;2.87;1.80;;;;;;;;;;5081044;28;20214;-69
2021/04/13 00:11:12;;;;;;;2.50;1.60;;;;;;;;;;5083880;28;20721;-69
2021/04/13 00:13:39;;;;;;;3.57;1.57;;;;;;;;;;5089350;28;20271;-69
2021/04/13 00:16:07;;;;;;;2.63;1.50;;;;;;;;;;5085725;28;20185;-70
2021/04/13 00:18:33;;;;;;;2.80;1.73;;;;;;;;;;5085996;28;20189;-69
2021/04/13 00:21:00;;;;;;;3.83;1.70;;;;;;;;;;5080797;28;20565;-69
2021/04/13 00:23:26;;;;;;;6.10;1.60;;;;;;;;;;5080053;28;20661;-68
2021/04/13 00:25:53;;;;;;;7.27;2.07;;;;;;;;;;5080200;28;20540;-69
2021/04/13 00:28:19;;;;;;;8.90;2.00;;;;;;;;;;5084362;28;20264;-69
2021/04/13 00:30:46;;;;;;;4.40;1.77;;;;;;;;;;5079316;28;20197;-69
2021/04/13 00:33:16;;;;;;;3.90;1.83;;;;;;;;;;5081134;28;20188;-68
2021/04/13 00:35:59;;;;;;;5.80;3.17;;;;;;;;;;5083018;28;20661;-69
2021/04/13 00:38:30;;;;;;;6.23;1.80;;;;;;;;;;5084397;28;20181;-69
2021/04/13 00:40:56;;;;;;;7.63;1.90;;;;;;;;;;5083780;28;20219;-68
2021/04/13 00:43:25;;;;;;;3.87;1.80;;;;;;;;;;5087175;28;20837;-69
2021/04/13 00:45:50;;;;;;;5.03;2.10;;;;;;;;;;5075494;28;20217;-69
2021/04/13 00:48:20;;;;;;;5.20;2.50;;;;;;;;;;5085016;28;20187;-67
2021/04/13 00:50:46;;;;;;;6.17;2.20;;;;;;;;;;5090886;28;20188;-69
2021/04/13 00:53:15;;;;;;;5.50;2.33;;;;;;;;;;5087734;28;20169;-69
2021/04/13 00:55:43;;;;;;;2.47;1.93;;;;;;;;;;5088916;28;20267;-69
2021/04/13 00:58:27;;;;;;;4.90;2.47;;;;;;;;;;5080451;28;20213;-68
2021/04/13 01:00:54;;;;;;;4.07;2.07;;;;;;;;;;5081745;28;20295;-69
2021/04/13 01:03:19;;;;;;;4.50;2.00;;;;;;;;;;5085465;28;20988;-69
2021/04/13 01:05:47;;;;;;;4.53;2.30;;;;;;;;;;5085722;28;20577;-69
2021/04/13 01:08:21;;;;;;;3.83;2.63;;;;;;;;;;5080916;28;20185;-69
2021/04/13 01:10:47;;;;;;;4.43;2.93;;;;;;;;;;5082489;28;20624;-70
2021/04/13 01:13:13;;;;;;;7.73;2.60;;;;;;;;;;5080946;28;20271;-69
2021/04/13 01:15:40;;;;;;;4.53;2.07;;;;;;;;;;5081727;28;20243;-69
2021/04/13 01:18:07;;;;;;;3.50;2.23;;;;;;;;;;5085069;28;20188;-69
2021/04/13 01:20:38;;;;;;;7.63;2.60;;;;;;;;;;5076018;28;20254;-69
2021/04/13 01:23:11;;;;;;;7.20;2.97;;;;;;;;;;5083378;28;20203;-69
2021/04/13 01:25:36;;;;;;;3.30;2.10;;;;;;;;;;5075848;28;20220;-69
2021/04/13 01:28:08;;;;;;;6.63;3.38;;;;;;;;;;5088128;28;20188;-68
2021/04/13 01:30:41;;;;;;;8.97;2.50;;;;;;;;;;5083690;28;20185;-69
2021/04/13 01:33:10;;;;;;;5.83;2.60;;;;;;;;;;5079733;28;20177;-68
2021/04/13 01:35:36;;;;;;;6.97;2.53;;;;;;;;;;5085717;28;20193;-68
2021/04/13 01:38:15;;;;;;;5.03;2.50;;;;;;;;;;5078193;28;20189;-68
2021/04/13 01:43:25;;;;;;;2.77;2.13;;;;;;;;;;5079876;28;20301;-69
2021/04/13 01:45:50;;;;;;;8.30;2.77;;;;;;;;;;5081604;28;20217;-69
2021/04/13 01:48:16;;;;;;;6.20;2.20;;;;;;;;;;5084400;28;20256;-69
2021/04/13 01:50:42;;;;;;;4.77;2.97;;;;;;;;;;5079876;28;20196;-69
2021/04/13 01:53:10;;;;;;;15.20;3.50;;;;;;;;;;5083499;28;20187;-69
2021/04/13 01:55:36;;;;;;;6.73;2.83;;;;;;;;;;5085365;28;20240;-69
2021/04/13 01:58:01;;;;;;;4.63;2.47;;;;;;;;;;5081094;28;20556;-70
2021/04/13 02:00:30;;;;;;;4.43;2.40;;;;;;;;;;5078539;28;20291;-69
2021/04/13 02:03:07;;;;;;;7.87;2.77;;;;;;;;;;5076630;28;20177;-69
2021/04/13 02:05:33;;;;;;;9.03;3.37;;;;;;;;;;5077608;28;20204;-69
2021/04/13 02:08:06;;;;;;;5.13;2.40;;;;;;;;;;5078566;28;20191;-69
2021/04/13 02:10:44;;;;;;;7.67;3.23;;;;;;;;;;5073140;28;20199;-70
2021/04/13 02:13:12;;;;;;;6.07;3.00;;;;;;;;;;5083463;28;20185;-69
2021/04/13 02:15:45;;;;;;;10.20;3.63;;;;;;;;;;5084350;28;20248;-69
2021/04/13 02:18:19;;;;;;;6.53;2.80;;;;;;;;;;5075791;28;20235;-70
2021/04/13 02:20:46;;;;;;;5.63;2.80;;;;;;;;;;5082631;28;20684;-69
2021/04/13 02:23:12;;;;;;;3.93;2.90;;;;;;;;;;5087168;28;20176;-70
2021/04/13 02:25:38;;;;;;;4.40;3.33;;;;;;;;;;5072651;28;20196;-69
2021/04/13 02:28:04;;;;;;;7.53;4.23;;;;;;;;;;5076612;28;20538;-70
2021/04/13 02:30:32;;;;;;;9.00;2.97;;;;;;;;;;5080874;28;20281;-70
2021/04/13 02:32:59;;;;;;;3.87;3.10;;;;;;;;;;5076050;28;20271;-69
2021/04/13 02:35:26;;;;;;;6.57;2.87;;;;;;;;;;5080367;28;20207;-71
2021/04/13 02:37:52;;;;;;;5.93;2.87;;;;;;;;;;5072275;28;20188;-70
2021/04/13 02:40:18;;;;;;;5.40;2.63;;;;;;;;;;5076920;28;20196;-69
2021/04/13 02:42:44;;;;;;;5.43;3.03;;;;;;;;;;5082213;28;20287;-70
2021/04/13 02:45:11;;;;;;;3.63;3.10;;;;;;;;;;5082388;28;20207;-70
2021/04/13 02:47:43;;;;;;;5.47;3.13;;;;;;;;;;5075536;28;20195;-70
2021/04/13 02:50:08;;;;;;;6.60;3.00;;;;;;;;;;5081040;28;20693;-70
2021/04/13 02:52:36;;;;;;;7.63;3.10;;;;;;;;;;5078630;28;20264;-71
2021/04/13 02:55:04;;;;;;;8.13;3.10;;;;;;;;;;5082796;28;20200;-70
2021/04/13 02:57:33;;;;;;;6.50;3.30;;;;;;;;;;5080995;28;20250;-70
2021/04/13 03:00:00;;;;;;;5.23;2.70;;;;;;;;;;5085904;28;20216;-68
2021/04/13 03:02:32;;;;;;;4.77;2.80;;;;;;;;;;5077857;28;20664;-71
2021/04/13 03:04:58;;;;;;;4.27;3.10;;;;;;;;;;5074546;28;21049;-69
2021/04/13 03:07:24;;;;;;;5.07;3.00;;;;;;;;;;5079747;28;20204;-70
2021/04/13 03:09:51;;;;;;;7.33;3.03;;;;;;;;;;5083430;28;20756;-69
2021/04/13 03:12:16;;;;;;;5.13;3.07;;;;;;;;;;5082891;28;20215;-70
2021/04/13 03:14:45;;;;;;;7.20;3.00;;;;;;;;;;5079462;28;20192;-70
2021/04/13 03:17:15;;;;;;;8.63;3.23;;;;;;;;;;5078602;28;20184;-68
2021/04/13 03:19:41;;;;;;;6.27;2.90;;;;;;;;;;5080841;28;20551;-68
2021/04/13 03:22:08;;;;;;;4.47;2.53;;;;;;;;;;5084887;28;20210;-68
2021/04/13 03:24:35;;;;;;;8.07;3.00;;;;;;;;;;5087919;28;20191;-68
2021/04/13 03:27:02;;;;;;;4.40;2.80;;;;;;;;;;5088744;28;20438;-71
2021/04/13 03:29:33;;;;;;;6.00;3.17;;;;;;;;;;5085091;28;20188;-70
2021/04/13 03:32:01;;;;;;;6.93;3.17;;;;;;;;;;5078135;28;20199;-70
2021/04/13 03:34:26;;;;;;;9.13;3.23;;;;;;;;;;5082129;28;20700;-70
2021/04/13 03:36:52;;;;;;;8.17;3.27;;;;;;;;;;5083999;28;20189;-70
2021/04/13 03:39:25;;;;;;;3.30;2.70;;;;;;;;;;5079400;28;20200;-70
2021/04/13 03:41:50;;;;;;;6.23;3.23;;;;;;;;;;5081784;28;20245;-70
2021/04/13 03:44:17;;;;;;;7.20;3.07;;;;;;;;;;5083065;28;20176;-71
2021/04/13 03:46:42;;;;;;;6.13;3.60;;;;;;;;;;5071343;28;20212;-70
2021/04/13 03:49:15;;;;;;;6.60;3.23;;;;;;;;;;5079588;28;20177;-70
2021/04/13 03:51:44;;;;;;;6.47;3.20;;;;;;;;;;5085180;28;20196;-69
2021/04/13 03:54:16;;;;;;;6.67;2.93;;;;;;;;;;5080530;28;20260;-68
2021/04/13 03:56:41;;;;;;;6.33;3.10;;;;;;;;;;5071624;28;20176;-70
2021/04/13 03:59:15;;;;;;;8.37;3.03;;;;;;;;;;5083341;28;20220;-71
2021/04/13 04:01:42;;;;;;;5.37;2.90;;;;;;;;;;5078978;28;20289;-70
2021/04/13 04:04:09;;;;;;;5.97;2.90;;;;;;;;;;5074716;28;20219;-70
2021/04/13 04:06:39;;;;;;;6.60;2.97;;;;;;;;;;5085670;28;20206;-71
2021/04/13 04:09:18;;;;;;;5.77;2.83;;;;;;;;;;5079032;28;20168;-71
2021/04/13 04:11:43;;;;;;;11.47;3.97;;;;;;;;;;5072643;28;20638;-70
2021/04/13 04:14:13;;;;;;;5.57;3.43;;;;;;;;;;5076189;28;20177;-70
2021/04/13 04:16:38;;;;;;;6.50;2.90;;;;;;;;;;5080182;28;20798;-70
2021/04/13 04:19:30;;;;;;;3.77;3.27;;;;;;;;;;5079598;28;20250;-70
2021/04/13 04:22:04;;;;;;;5.47;3.10;;;;;;;;;;5080436;28;20212;-70
2021/04/13 04:24:39;;;;;;;7.47;3.30;;;;;;;;;;5073441;28;20657;-69
2021/04/13 04:27:05;;;;;;;9.10;3.30;;;;;;;;;;5074591;28;20299;-70
2021/04/13 04:29:37;;;;;;;8.37;3.37;;;;;;;;;;5082309;28;20259;-70
2021/04/13 04:32:38;;;;;;;11.80;3.43;;;;;;;;;;5080200;28;20284;-70
2021/04/13 04:35:06;;;;;;;6.63;3.57;;;;;;;;;;5075322;28;20283;-70
2021/04/13 04:37:32;;;;;;;7.87;3.60;;;;;;;;;;5073915;28;20203;-69
2021/04/13 04:40:12;;;;;;;8.90;3.40;;;;;;;;;;5077299;28;20209;-71
2021/04/13 04:42:38;;;;;;;7.07;4.07;;;;;;;;;;5078119;28;20180;-71
2021/04/13 04:45:12;;;;;;;10.07;3.20;;;;;;;;;;5078161;28;20173;-69
2021/04/13 04:47:38;;;;;;;8.10;4.20;;;;;;;;;;5086140;28;20187;-70
2021/04/13 04:50:22;;;;;;;7.60;3.73;;;;;;;;;;5088592;28;20168;-69
2021/04/13 04:52:47;;;;;;;7.03;3.57;;;;;;;;;;5086270;28;20208;-71
2021/04/13 04:55:13;;;;;;;4.50;3.40;;;;;;;;;;5076995;28;20633;-68
2021/04/13 04:57:38;;;;;;;6.00;3.03;;;;;;;;;;5089673;28;20184;-70
2021/04/13 05:00:04;;;;;;;7.70;3.43;;;;;;;;;;5087601;28;20184;-69
2021/04/13 05:02:29;;;;;;;5.33;3.20;;;;;;;;;;5073340;28;20187;-67
2021/04/13 05:04:55;;;;;;;8.60;3.47;;;;;;;;;;5079590;28;20214;-69
2021/04/13 05:07:20;;;;;;;7.87;3.27;;;;;;;;;;5088854;28;20234;-68
2021/04/13 05:09:45;;;;;;;7.43;3.57;;;;;;;;;;5084364;28;20694;-69
2021/04/13 05:12:11;;;;;;;6.53;3.40;;;;;;;;;;5078957;28;20204;-69
2021/04/13 05:14:36;;;;;;;6.63;3.37;;;;;;;;;;5078222;28;20177;-69
2021/04/13 05:17:01;;;;;;;7.03;3.17;;;;;;;;;;5083171;28;20200;-69
2021/04/13 05:19:26;;;;;;;11.03;3.43;;;;;;;;;;5080398;28;20180;-68
2021/04/13 05:21:51;;;;;;;5.73;3.20;;;;;;;;;;5080385;28;20821;-69
2021/04/13 05:24:17;;;;;;;11.03;3.00;;;;;;;;;;5080974;28;20177;-70
2021/04/13 05:26:42;;;;;;;7.60;3.73;;;;;;;;;;5079880;28;20200;-69
2021/04/13 05:29:07;;;;;;;8.37;3.10;;;;;;;;;;5077885;28;20501;-70
2021/04/13 05:31:37;;;;;;;5.83;3.30;;;;;;;;;;5082927;28;20689;-69
2021/04/13 05:34:02;;;;;;;8.60;3.97;;;;;;;;;;5084106;28;20756;-69
2021/04/13 05:36:28;;;;;;;9.87;4.03;;;;;;;;;;5082514;28;20335;-69
2021/04/13 05:38:54;;;;;;;9.97;3.93;;;;;;;;;;5086494;28;20276;-70
2021/04/13 05:41:19;;;;;;;8.87;3.90;;;;;;;;;;5083241;28;20696;-69
2021/04/13 05:43:44;;;;;;;11.40;3.97;;;;;;;;;;5082702;28;20219;-70
2021/04/13 05:46:13;;;;;;;7.70;3.60;;;;;;;;;;5075832;28;20666;-69
2021/04/13 05:48:38;;;;;;;8.40;3.50;;;;;;;;;;5083408;28;20177;-69
2021/04/13 05:51:04;;;;;;;8.20;3.90;;;;;;;;;;5085166;28;20189;-70
2021/04/13 05:53:29;;;;;;;8.47;4.07;;;;;;;;;;5083587;28;20416;-70
2021/04/13 05:55:54;;;;;;;10.53;4.43;;;;;;;;;;5082639;28;20272;-69
2021/04/13 05:58:27;;;;;;;14.07;4.27;;;;;;;;;;5081635;28;20184;-69
2021/04/13 06:00:54;;;;;;;12.10;4.43;;;;;;;;;;5077540;28;20299;-68
2021/04/13 06:03:20;;;;;;;8.40;4.10;;;;;;;;;;5077630;28;20181;-68
2021/04/13 06:05:45;;;;;;;6.47;4.07;;;;;;;;;;5077244;28;20208;-69
2021/04/13 06:08:11;;;;;;;8.10;3.40;;;;;;;;;;5078932;28;20193;-68
2021/04/13 06:10:36;;;;;;;5.90;2.70;;;;;;;;;;5084038;28;20200;-69
2021/04/13 06:13:01;;;;;;;11.97;2.97;;;;;;;;;;5071837;28;20196;-68
2021/04/13 06:15:28;;;;;;;8.53;3.30;;;;;;;;;;5082270;28;20567;-69
2021/04/13 06:17:53;;;;;;;5.97;2.87;;;;;;;;;;5072277;28;20181;-69
2021/04/13 06:20:20;;;;;;;8.93;2.50;;;;;;;;;;5085733;28;20203;-69
2021/04/13 06:22:45;;;;;;;5.43;2.93;;;;;;;;;;5080616;28;20173;-69
2021/04/13 06:25:11;;;;;;;7.13;2.17;;;;;;;;;;5089673;28;20177;-68
2021/04/13 06:27:37;;;;;;;8.03;2.13;;;;;;;;;;5075834;28;20184;-68
2021/04/13 06:30:03;;;;;;;9.10;2.80;;;;;;;;;;5084688;28;20185;-69
2021/04/13 06:32:28;;;;;;;2.23;1.90;;;;;;;;;;5085395;28;20184;-68
2021/04/13 06:34:53;;;;;;;7.30;2.40;;;;;;;;;;5084763;28;20195;-69
2021/04/13 06:37:19;;;;;;;5.13;2.23;;;;;;;;;;5079505;28;20173;-68
2021/04/13 06:39:44;;;;;;;6.73;2.33;;;;;;;;;;5080746;28;20183;-69
2021/04/13 06:42:18;;;;;;;4.83;1.73;;;;;;;;;;5065122;28;20196;-66
2021/04/13 06:44:50;;;;;;;4.07;1.77;;;;;;;;;;5062316;28;20180;-69
2021/04/13 06:47:38;;;;;;;9.73;2.80;;;;;;;;;;5067094;28;20204;-68
2021/04/13 06:50:10;;;;;;;6.13;1.80;;;;;;;;;;5062807;28;20204;-69
2021/04/13 06:52:35;;;;;;;6.70;1.90;;;;;;;;;;5066920;28;20918;-68
2021/04/13 06:55:00;;;;;;;5.50;1.60;;;;;;;;;;5065666;28;20209;-69
2021/04/13 06:57:42;;;;;;;5.97;1.90;;;;;;;;;;5062540;28;20189;-68
2021/04/13 07:00:13;;;;;;;7.23;3.07;;;;;;;;;;5064058;28;20188;-69
2021/04/13 07:02:57;;;;;;;8.33;2.77;;;;;;;;;;5064208;28;20172;-69
2021/04/13 07:05:25;;;;;;;4.63;1.77;;;;;;;;;;5068461;28;20218;-68
2021/04/13 07:08:04;;;;;;;6.60;1.80;;;;;;;;;;5063387;28;20638;-67
2021/04/13 07:10:39;;;;;;;17.03;2.33;;;;;;;;;;5062716;28;20208;-69
2021/04/13 07:13:13;;;;;;;4.47;1.67;;;;;;;;;;5062461;28;20665;-67
2021/04/13 07:15:45;;;;;;;6.33;2.10;;;;;;;;;;5064185;28;20265;-68
2021/04/13 07:18:21;;;;;;;5.23;1.90;;;;;;;;;;5061338;28;20310;-68
2021/04/13 07:20:49;;;;;;;5.87;1.97;;;;;;;;;;5064310;28;20319;-67
2021/04/13 07:23:40;;;;;;;8.40;2.20;;;;;;;;;;5061529;28;20218;-67
2021/04/13 07:26:19;;;;;;;4.97;2.00;;;;;;;;;;5062390;28;20513;-67
2021/04/13 07:28:53;;;;;;;4.67;1.53;;;;;;;;;;5063826;28;20641;-66
2021/04/13 07:31:22;;;;;;;8.60;1.93;;;;;;;;;;5064611;28;20206;-69
2021/04/13 07:33:47;;;;;;;5.67;2.20;;;;;;;;;;5065308;28;20187;-69
2021/04/13 07:36:17;;;;;;;6.57;2.00;;;;;;;;;;5062919;28;20188;-69
2021/04/13 07:38:43;;;;;;;9.20;1.87;;;;;;;;;;5062561;28;20185;-67
2021/04/13 07:41:11;;;;;;;6.70;1.80;;;;;;;;;;5063422;28;20208;-68
2021/04/13 07:43:43;;;;;;;4.00;1.57;;;;;;;;;;5061605;28;20444;-67
2021/04/13 07:46:27;;;;;;;7.43;2.17;;;;;;;;;;5060347;28;20284;-69
2021/04/13 07:49:04;;;;;;;6.93;1.60;;;;;;;;;;5061134;28;20184;-69
2021/04/13 07:51:29;;;;;;;4.70;2.10;;;;;;;;;;5061674;28;20943;-69
2021/04/13 07:54:06;;;;;;;5.38;1.90;;;;;;;;;;5068164;28;20184;-67
2021/04/13 07:56:43;;;;;;;5.17;1.37;;;;;;;;;;5062626;28;20194;-68
2021/04/13 07:59:17;;;;;;;5.77;1.93;;;;;;;;;;5062936;28;20296;-66
2021/04/13 08:01:43;;;;;;;3.23;1.40;;;;;;;;;;5065156;28;20219;-66
2021/04/13 08:04:08;;;;;;;4.47;1.77;;;;;;;;;;5062659;28;20211;-68
2021/04/13 08:06:37;;;;;;;4.37;1.07;;;;;;;;;;5069032;28;20694;-67
2021/04/13 08:09:20;;;;;;;4.93;1.00;;;;;;;;;;5063831;28;20657;-69
2021/04/13 08:12:03;;;;;;;5.80;1.37;;;;;;;;;;5067500;28;20200;-66
2021/04/13 08:14:31;;;;;;;4.40;0.90;;;;;;;;;;5061912;28;20738;-67
2021/04/13 08:17:03;;;;;;;4.00;0.97;;;;;;;;;;5067613;28;20192;-67
2021/04/13 08:19:31;;;;;;;7.53;1.83;;;;;;;;;;5064151;28;20177;-69
2021/04/13 08:22:14;;;;;;;4.80;2.40;;;;;;;;;;5068954;28;20249;-66
2021/04/13 08:24:46;;;;;;;3.33;0.90;;;;;;;;;;5066340;28;20665;-65
2021/04/13 08:27:19;;;;;;;6.80;1.30;;;;;;;;;;5065148;28;20208;-67
2021/04/13 08:29:53;;;;;;;3.17;1.00;;;;;;;;;;5066371;28;20195;-66
2021/04/13 08:35:11;;;;;;;6.57;1.03;;;;;;;;;;5065966;28;20191;-69
2021/04/13 08:37:49;;;;;;;3.73;0.90;;;;;;;;;;5068105;28;20168;-65
2021/04/13 08:40:17;;;;;;;4.50;0.90;;;;;;;;;;5067795;28;20261;-66
2021/04/13 08:42:45;;;;;;;2.87;0.90;;;;;;;;;;5067167;28;20185;-67
2021/04/13 08:45:32;;;;;;;4.27;1.00;;;;;;;;;;5066567;28;20200;-67
2021/04/13 08:48:04;;;;;;;2.37;0.90;;;;;;;;;;5068813;28;20180;-65
2021/04/13 08:50:35;;;;;;;2.77;0.70;;;;;;;;;;5066296;28;20197;-68
2021/04/13 08:53:03;;;;;;;24.67;2.90;;;;;;;;;;5068975;28;20271;-66
2021/04/13 08:55:39;;;;;;;2.60;1.10;;;;;;;;;;5064163;28;20213;-67
2021/04/13 08:58:17;;;;;;;7.43;0.93;;;;;;;;;;5066050;28;20199;-67
2021/04/13 09:00:44;;;;;;;4.17;1.17;;;;;;;;;;5065412;28;20547;-68
2021/04/13 09:03:13;;;;;;;4.17;0.90;;;;;;;;;;5065900;28;20173;-69
2021/04/13 09:05:39;;;;;;;2.87;1.00;;;;;;;;;;5071911;28;20208;-67
2021/04/13 09:08:05;;;;;;;5.53;1.00;;;;;;;;;;5066203;28;20192;-67
2021/04/13 09:10:36;;;;;;;2.95;1.13;;;;;;;;;;5066795;28;20193;-66
2021/04/13 09:13:04;;;;;;;3.03;0.90;;;;;;;;;;5066115;28;20181;-68
2021/04/13 09:15:30;;;;;;;2.63;0.90;;;;;;;;;;5070292;28;20181;-70
2021/04/13 09:18:28;;;;;;;5.33;1.00;;;;;;;;;;5066611;28;20234;-68
2021/04/13 09:21:17;;;;;;;4.90;0.90;;;;;;;;;;5071209;28;20767;-67
2021/04/13 09:23:45;;;;;;;7.03;2.20;;;;;;;;;;5066274;28;20243;-67
2021/04/13 09:26:14;;;;;;;4.83;1.10;;;;;;;;;;5066087;28;20260;-66
2021/04/13 09:28:45;;;;;;;2.83;1.43;;;;;;;;;;5065100;28;20181;-67
2021/04/13 09:31:11;;;;;;;7.83;1.30;;;;;;;;;;5066962;28;20488;-66
2021/04/13 09:33:40;;;;;;;3.25;1.08;;;;;;;;;;5067740;28;20653;-68
2021/04/13 09:36:05;;;;;;;3.47;0.90;;;;;;;;;;5068312;28;20200;-67
2021/04/13 09:38:49;;;;;;;5.35;0.82;;;;;;;;;;5067019;28;20226;-67
2021/04/13 09:41:23;;;;;;;2.15;0.80;;;;;;;;;;5066481;28;20445;-67
2021/04/13 09:44:03;;;;;;;2.22;0.70;;;;;;;;;;5065589;28;20263;-67
2021/04/13 09:46:34;;;;;;;2.40;0.88;;;;;;;;;;5067255;28;20296;-67
2021/04/13 09:49:18;;;;;;;2.50;0.80;;;;;;;;;;5065006;28;20234;-67
2021/04/13 09:52:02;;;;;;;3.40;0.93;;;;;;;;;;5070897;28;20197;-68
2021/04/13 09:54:30;;;;;;;3.03;0.95;;;;;;;;;;5066400;28;20180;-67
2021/04/13 09:57:01;;;;;;;2.38;0.80;;;;;;;;;;5065973;28;20185;-68
2021/04/13 09:59:32;;;;;;;2.45;0.85;;;;;;;;;;5067540;28;20745;-67
2021/04/13 10:02:13;;;;;;;2.38;0.80;;;;;;;;;;5068582;28;20215;-68
2021/04/13 10:04:48;;;;;;;3.08;0.90;;;;;;;;;;5070652;28;20176;-67
2021/04/13 10:07:18;;;;;;;3.33;1.30;;;;;;;;;;5067312;28;20680;-68
2021/04/13 10:09:44;;;;;;;2.13;0.80;;;;;;;;;;5065732;28;20192;-68
2021/04/13 10:12:28;;;;;;;2.38;1.17;;;;;;;;;;5066393;28;20184;-67
2021/04/13 10:15:02;;;;;;;2.25;0.85;;;;;;;;;;5066487;28;20191;-68
2021/04/13 10:17:46;;;;;;;4.25;1.00;;;;;;;;;;5061666;28;20567;-68
2021/04/13 10:20:19;;;;;;;2.58;0.90;;;;;;;;;;5070734;28;20182;-68
2021/04/13 10:22:52;;;;;;;2.85;0.90;;;;;;;;;;5073589;28;20192;-68
2021/04/13 10:25:29;;;;;;;2.22;1.20;;;;;;;;;;5071380;28;20305;-68
2021/04/13 10:28:13;;;;;;;3.17;1.23;;;;;;;;;;5073372;28;20176;-67
2021/04/13 10:31:04;;;;;;;3.03;0.90;;;;;;;;;;5072191;28;20421;-67
2021/04/13 10:33:48;;;;;;;3.15;1.30;;;;;;;;;;5073987;28;20221;-67
2021/04/13 10:36:28;;;;;;;24.25;2.60;;;;;;;;;;5071088;28;20233;-67
2021/04/13 10:39:12;;;;;;;1.95;0.70;;;;;;;;;;5070144;28;20572;-67
2021/04/13 10:41:40;;;;;;;3.00;0.80;;;;;;;;;;5071972;28;20196;-67
2021/04/13 10:44:05;;;;;;;4.80;0.90;;;;;;;;;;5068586;28;20184;-68
2021/04/13 10:46:49;;;;;;;2.88;0.85;;;;;;;;;;5072340;28;20220;-68
2021/04/13 10:49:31;;;;;;;2.17;0.82;;;;;;;;;;5070657;28;20176;-68
2021/04/13 10:52:15;;;;;;;2.72;0.93;;;;;;;;;;5076093;28;20696;-68
2021/04/13 10:54:43;;;;;;;1.48;0.90;;;;;;;;;;5077652;28;20180;-68
2021/04/13 10:57:27;;;;;;;2.63;0.90;;;;;;;;;;5080318;28;20188;-67
2021/04/13 11:00:15;;;;;;;3.17;0.93;;;;;;;;;;5073734;28;20181;-68
2021/04/13 11:03:00;;;;;;;4.35;0.95;;;;;;;;;;5072706;28;20185;-68
2021/04/13 11:05:44;;;;;;;4.97;1.13;;;;;;;;;;5067043;28;20250;-68
2021/04/13 11:08:18;;;;;;;5.57;1.17;;;;;;;;;;5073132;28;20172;-67
2021/04/13 11:11:02;;;;;;;2.50;1.50;;;;;;;;;;5070363;28;20195;-68
2021/04/13 11:13:47;;;;;;;3.00;1.13;;;;;;;;;;5069180;28;20700;-67
2021/04/13 11:16:18;;;;;;;3.45;1.10;;;;;;;;;;5072822;28;20176;-68
2021/04/13 11:18:49;;;;;;;2.97;0.88;;;;;;;;;;5073863;28;20666;-68
2021/04/13 11:21:43;;;;;;;2.70;0.82;;;;;;;;;;5072921;28;20204;-66
2021/04/13 11:24:27;;;;;;;3.72;0.90;;;;;;;;;;5073418;28;20185;-67
2021/04/13 11:27:00;;;;;;;2.85;0.90;;;;;;;;;;5071547;28;20295;-68
2021/04/13 11:29:34;;;;;;;5.57;1.10;;;;;;;;;;5070806;28;20195;-68
2021/04/13 11:31:59;;;;;;;3.08;1.25;;;;;;;;;;5075214;28;20199;-67
2021/04/13 11:34:40;;;;;;;2.40;0.95;;;;;;;;;;5081007;28;20189;-67
2021/04/13 11:37:08;;;;;;;5.05;2.33;;;;;;;;;;5076269;28;20471;-67
2021/04/13 11:39:37;;;;;;;2.13;1.10;;;;;;;;;;5079890;28;20184;-67
2021/04/13 11:42:11;;;;;;;4.60;1.08;;;;;;;;;;5075070;28;20282;-67
2021/04/13 11:44:41;;;;;;;4.18;1.30;;;;;;;;;;5069254;28;20180;-67
2021/04/13 11:47:06;;;;;;;4.25;1.00;;;;;;;;;;5067200;28;20292;-67
2021/04/13 11:49:34;;;;;;;4.97;0.80;;;;;;;;;;5070748;28;20266;-67
2021/04/13 11:52:18;;;;;;;2.67;0.80;;;;;;;;;;5071554;28;20450;-68
2021/04/13 11:54:49;;;;;;;2.28;1.00;;;;;;;;;;5071720;28;20272;-67
2021/04/13 11:57:14;;;;;;;3.15;1.00;;;;;;;;;;5075721;28;20201;-66
2021/04/13 11:59:40;;;;;;;3.92;1.10;;;;;;;;;;5073410;28;20257;-67
2021/04/13 12:02:16;;;;;;;3.45;1.13;;;;;;;;;;5070337;28;22255;-67
2021/04/13 12:04:43;;;;;;;3.28;1.05;;;;;;;;;;5072131;28;20653;-68
2021/04/13 12:07:09;;;;;;;3.47;1.10;;;;;;;;;;5079462;28;20228;-68
2021/04/13 12:10:01;;;;;;;3.60;0.98;;;;;;;;;;5075903;28;20650;-68
2021/04/13 12:12:29;;;;;;;3.92;1.20;;;;;;;;;;5077974;28;20618;-68
2021/04/13 12:14:55;;;;;;;3.88;1.48;;;;;;;;;;5080755;28;20590;-68
2021/04/13 12:17:29;;;;;;;3.13;1.05;;;;;;;;;;5079349;28;20173;-67
2021/04/13 12:20:13;;;;;;;0.85;0.50;;;;;;;;;;5081496;28;20184;-68
2021/04/13 12:22:38;;;;;;;2.58;1.10;;;;;;;;;;5073091;28;20179;-67
2021/04/13 12:25:23;;;;;;;4.00;1.23;;;;;;;;;;5076629;28;20184;-68
2021/04/13 12:28:00;;;;;;;2.33;0.90;;;;;;;;;;5073267;28;20212;-68
2021/04/13 12:30:25;;;;;;;3.10;1.10;;;;;;;;;;5074606;28;20202;-67
2021/04/13 12:32:50;;;;;;;3.43;0.90;;;;;;;;;;5075620;28;20180;-67
2021/04/13 12:35:34;;;;;;;3.58;0.82;;;;;;;;;;5076122;28;20441;-70
2021/04/13 12:37:59;;;;;;;1.70;0.95;;;;;;;;;;5072146;28;20180;-68
2021/04/13 12:40:26;;;;;;;3.77;1.33;;;;;;;;;;5076102;28;20646;-68
2021/04/13 12:43:03;;;;;;;2.75;1.27;;;;;;;;;;5074522;28;20418;-67
2021/04/13 12:45:30;;;;;;;2.03;0.80;;;;;;;;;;5074864;28;20207;-68
2021/04/13 12:48:13;;;;;;;1.88;0.90;;;;;;;;;;5080399;28;20172;-69
2021/04/13 12:50:46;;;;;;;2.47;1.30;;;;;;;;;;5077823;28;20217;-67
2021/04/13 12:53:22;;;;;;;3.35;1.00;;;;;;;;;;5069583;28;20207;-67
2021/04/13 12:55:58;;;;;;;2.60;0.98;;;;;;;;;;5073428;28;20176;-68
2021/04/13 12:58:28;;;;;;;4.05;1.20;;;;;;;;;;5075004;28;20267;-68
2021/04/13 13:00:54;;;;;;;2.35;1.25;;;;;;;;;;5078789;28;20205;-67
2021/04/13 13:03:19;;;;;;;2.63;1.20;;;;;;;;;;5072098;28;20179;-68
2021/04/13 13:05:45;;;;;;;1.92;0.80;;;;;;;;;;5074464;28;20169;-68
2021/04/13 13:08:23;;;;;;;1.45;0.90;;;;;;;;;;5069994;28;20212;-70
2021/04/13 13:10:50;;;;;;;3.20;1.30;;;;;;;;;;5080338;28;20192;-68
2021/04/13 13:13:34;;;;;;;5.25;1.35;;;;;;;;;;5074782;28;20176;-66
2021/04/13 13:16:09;;;;;;;2.47;1.05;;;;;;;;;;5079207;28;20198;-67
2021/04/13 13:18:42;;;;;;;2.67;1.30;;;;;;;;;;5074410;28;20725;-67
2021/04/13 13:21:19;;;;;;;2.85;1.80;;;;;;;;;;5075784;28;20654;-68
2021/04/13 13:23:52;;;;;;;2.10;0.90;;;;;;;;;;5074617;28;20619;-66
2021/04/13 13:26:17;;;;;;;2.55;1.10;;;;;;;;;;5075620;28;20209;-68
2021/04/13 13:28:43;;;;;;;1.38;0.98;;;;;;;;;;5076266;28;20218;-67
2021/04/13 13:31:09;;;;;;;8.88;1.77;;;;;;;;;;5077141;28;20192;-68
2021/04/13 13:33:34;;;;;;;2.97;1.25;;;;;;;;;;5073887;28;20352;-67
2021/04/13 13:36:00;;;;;;;1.70;0.93;;;;;;;;;;5074395;28;20664;-67
2021/04/13 13:38:25;;;;;;;4.30;0.95;;;;;;;;;;5069224;28;20256;-68
2021/04/13 13:40:50;;;;;;;1.92;0.95;;;;;;;;;;5071705;28;20231;-68
2021/04/13 13:43:21;;;;;;;3.58;1.10;;;;;;;;;;5073300;28;20333;-66
2021/04/13 13:45:48;;;;;;;1.45;0.80;;;;;;;;;;5071492;28;20188;-67
2021/04/13 13:48:22;;;;;;;3.25;1.40;;;;;;;;;;5073215;28;20177;-68
2021/04/13 13:50:48;;;;;;;2.08;1.05;;;;;;;;;;5075993;28;20270;-67
2021/04/13 13:53:18;;;;;;;1.20;0.80;;;;;;;;;;5078084;28;20189;-67
2021/04/13 13:55:53;;;;;;;2.40;1.00;;;;;;;;;;5072871;28;20177;-66
2021/04/13 13:58:26;;;;;;;2.20;1.38;;;;;;;;;;5071740;28;20280;-67
2021/04/13 14:01:02;;;;;;;1.80;0.80;;;;;;;;;;5073957;28;20712;-66
2021/04/13 14:03:47;;;;;;;3.53;1.58;;;;;;;;;;5072416;28;20227;-67
2021/04/13 14:06:27;;;;;;;1.58;1.27;;;;;;;;;;5076482;28;20249;-68
2021/04/13 14:09:06;;;;;;;3.20;1.20;;;;;;;;;;5086163;28;20195;-68
2021/04/13 14:11:33;;;;;;;4.22;1.35;;;;;;;;;;5073513;28;20700;-67
2021/04/13 14:13:58;;;;;;;3.95;1.55;;;;;;;;;;5074940;28;20259;-67
2021/04/13 14:16:24;;;;;;;2.08;1.23;;;;;;;;;;5071435;28;20782;-68
2021/04/13 14:18:50;;;;;;;13.80;1.88;;;;;;;;;;5076824;28;20176;-67
2021/04/13 14:21:17;;;;;;;2.42;1.17;;;;;;;;;;5073805;28;20207;-67
2021/04/13 14:23:47;;;;;;;1.42;1.02;;;;;;;;;;5076739;28;20215;-67
2021/04/13 14:26:12;;;;;;;2.35;1.20;;;;;;;;;;5072756;28;20201;-68
2021/04/13 14:28:37;;;;;;;2.30;1.50;;;;;;;;;;5070716;28;20656;-67
2021/04/13 14:31:12;;;;;;;1.77;1.20;;;;;;;;;;5072288;28;20441;-67
2021/04/13 14:33:37;;;;;;;2.35;1.40;;;;;;;;;;5071231;28;20659;-67
2021/04/13 14:36:02;;;;;;;1.93;1.30;;;;;;;;;;5072663;28;20684;-68
2021/04/13 14:38:28;;;;;;;1.92;1.08;;;;;;;;;;5076976;28;20433;-68
2021/04/13 14:40:53;;;;;;;3.00;1.35;;;;;;;;;;5073477;28;20582;-66
2021/04/13 14:43:18;;;;;;;2.60;1.30;;;;;;;;;;5075413;28;20180;-67
2021/04/13 14:45:43;;;;;;;2.10;1.08;;;;;;;;;;5074521;28;20635;-68
2021/04/13 14:48:12;;;;;;;1.65;1.10;;;;;;;;;;5071161;28;20169;-68
2021/04/13 14:50:39;;;;;;;2.92;1.30;;;;;;;;;;5070744;28;20250;-71
2021/04/13 14:53:06;;;;;;;1.13;1.03;;;;;;;;;;5070978;28;20274;-67
2021/04/13 14:55:31;;;;;;;1.47;1.30;;;;;;;;;;5072761;28;20192;-67
2021/04/13 14:57:59;;;;;;;1.67;1.13;;;;;;;;;;5072394;28;20181;-68
2021/04/13 15:00:25;;;;;;;4.10;1.67;;;;;;;;;;5070660;28;20204;-69
2021/04/13 15:02:51;;;;;;;2.83;1.40;;;;;;;;;;5074384;28;20180;-68
2021/04/13 15:05:16;;;;;;;2.27;1.50;;;;;;;;;;5074047;28;20273;-67
2021/04/13 15:07:41;;;;;;;2.03;1.73;;;;;;;;;;5071243;28;20255;-67
2021/04/13 15:10:08;;;;;;;2.60;1.80;;;;;;;;;;5072159;28;20181;-68